Aeroporto :
LOGIN :

Iscrizione | Disclaimer

   EN    FR    IT 

 










Sommario :    VFR   VFR Marginale   IFR   IFR Intensivo   IFR Molto Intensivo
Visibilità : 
Base nubi : 
>= 8 km
>= 3000ft
5 / 8 km
1000 / 3000 ft
1500m / 5 km
500 / 1000 ft
800 / 1500m
200 / 500 ft
< 800m
< 200 ft
Simboli :   Temporali  Nebbia  Neve Forte  Precipitazioni Forti  Vento > 20 kt
SIGMETs :   Varie  Temporali  Ghiacco  Turbolenza  Onda orograficha  Ceneri Vulcaniche






- Altitudine del aeroporto : 755 ft
- Codice IATA : RWN


UKLR - Rivne

ULTIMO METAR :
  • 211500Z 18004MPS 8000 SCT026 SCT026CB 04/01 Q1018 R11/090070 NOSIG

METARs OBSOLETI :
  • 211430Z 15004MPS 9999 SCT030 04/01 Q1017 R11/090070 NOSIG
  • 211400Z 15004MPS CAVOK 05/01 Q1017 R11/090070 NOSIG
  • 211330Z 16005MPS CAVOK 05/01 Q1017 R11/090070 NOSIG
  • 211300Z 16005MPS CAVOK 07/00 Q1017 R11/090070 NOSIG

TAF TAF UKLR
Valido dal 21 a 12 ore il 21 a 21 ore UTC


211103Z 2112/2121 18005MPS 9999 BKN015 TX07/2113Z TN01/2121Z



MetMap, La meteo Aeronautica in un colpo d'occhio ! - Copyright ORBIFLY Dicembre 2007 - Disclaimer

ORBIFLY MET'MAP TEAM :

Programmazione e sviluppo : Alexandra Zaïnal
Concezione : Baudouin d'Aumeries
Aiuto per la programmazione : Marc-Olivier Méhu
Supporto tecnico e logistico : Manuel Goepfert
Aiuto per la traduzione : Arnaldo La Scala

Contatto : metmap@orbifly.com




FONTI E CREDITI :

   NOAA